sensor_id;sensor_type;location;lat;lon;timestamp;temperature;humidity
62363;DHT22;48396;48.426;1.500;2022-08-19T00:02:09;25.60;62.20
62363;DHT22;48396;48.426;1.500;2022-08-19T00:04:35;25.50;62.20
62363;DHT22;48396;48.426;1.500;2022-08-19T00:07:02;25.50;62.20
62363;DHT22;48396;48.426;1.500;2022-08-19T00:09:28;25.50;62.30
62363;DHT22;48396;48.426;1.500;2022-08-19T00:11:54;25.50;62.50
62363;DHT22;48396;48.426;1.500;2022-08-19T00:14:21;25.40;62.40
62363;DHT22;48396;48.426;1.500;2022-08-19T00:16:47;25.30;62.70
62363;DHT22;48396;48.426;1.500;2022-08-19T00:19:14;25.30;63.00
62363;DHT22;48396;48.426;1.500;2022-08-19T00:21:40;25.20;63.20
62363;DHT22;48396;48.426;1.500;2022-08-19T00:24:06;25.20;63.10
62363;DHT22;48396;48.426;1.500;2022-08-19T00:26:32;25.20;63.20
62363;DHT22;48396;48.426;1.500;2022-08-19T00:28:58;25.20;63.30
62363;DHT22;48396;48.426;1.500;2022-08-19T00:31:25;25.20;63.40
62363;DHT22;48396;48.426;1.500;2022-08-19T00:33:53;25.20;63.40
62363;DHT22;48396;48.426;1.500;2022-08-19T00:36:19;25.20;63.50
62363;DHT22;48396;48.426;1.500;2022-08-19T00:38:44;25.20;63.50
62363;DHT22;48396;48.426;1.500;2022-08-19T00:41:12;25.10;63.60
62363;DHT22;48396;48.426;1.500;2022-08-19T00:43:39;25.10;64.00
62363;DHT22;48396;48.426;1.500;2022-08-19T00:46:06;25.00;63.90
62363;DHT22;48396;48.426;1.500;2022-08-19T00:48:32;25.00;64.20
62363;DHT22;48396;48.426;1.500;2022-08-19T00:50:59;24.80;64.60
62363;DHT22;48396;48.426;1.500;2022-08-19T00:53:26;24.80;65.00
62363;DHT22;48396;48.426;1.500;2022-08-19T00:55:53;24.80;65.10
62363;DHT22;48396;48.426;1.500;2022-08-19T00:58:21;24.90;65.00
62363;DHT22;48396;48.426;1.500;2022-08-19T01:00:47;24.90;64.80
62363;DHT22;48396;48.426;1.500;2022-08-19T01:03:15;24.90;64.80
62363;DHT22;48396;48.426;1.500;2022-08-19T01:05:42;24.90;64.80
62363;DHT22;48396;48.426;1.500;2022-08-19T01:08:09;24.90;64.80
62363;DHT22;48396;48.426;1.500;2022-08-19T01:10:39;24.90;65.00
62363;DHT22;48396;48.426;1.500;2022-08-19T01:13:05;24.80;65.10
62363;DHT22;48396;48.426;1.500;2022-08-19T01:15:32;24.70;65.50
62363;DHT22;48396;48.426;1.500;2022-08-19T01:18:05;24.60;66.10
62363;DHT22;48396;48.426;1.500;2022-08-19T01:20:31;24.60;66.10
62363;DHT22;48396;48.426;1.500;2022-08-19T01:22:57;24.60;66.10
62363;DHT22;48396;48.426;1.500;2022-08-19T01:25:27;24.60;66.10
62363;DHT22;48396;48.426;1.500;2022-08-19T01:27:54;24.60;66.20
62363;DHT22;48396;48.426;1.500;2022-08-19T01:30:22;24.60;66.40
62363;DHT22;48396;48.426;1.500;2022-08-19T01:32:49;24.60;66.50
62363;DHT22;48396;48.426;1.500;2022-08-19T01:35:15;24.70;66.60
62363;DHT22;48396;48.426;1.500;2022-08-19T01:37:54;24.60;66.50
62363;DHT22;48396;48.426;1.500;2022-08-19T01:40:20;24.60;66.80
62363;DHT22;48396;48.426;1.500;2022-08-19T01:42:47;24.60;66.90
62363;DHT22;48396;48.426;1.500;2022-08-19T01:45:13;24.60;67.00
62363;DHT22;48396;48.426;1.500;2022-08-19T01:47:38;24.60;67.10
62363;DHT22;48396;48.426;1.500;2022-08-19T01:50:05;24.60;67.20
62363;DHT22;48396;48.426;1.500;2022-08-19T01:52:31;24.60;67.40
62363;DHT22;48396;48.426;1.500;2022-08-19T01:54:56;24.60;67.40
62363;DHT22;48396;48.426;1.500;2022-08-19T01:57:22;24.50;67.70
62363;DHT22;48396;48.426;1.500;2022-08-19T01:59:48;24.40;68.20
62363;DHT22;48396;48.426;1.500;2022-08-19T02:02:13;24.40;68.30
62363;DHT22;48396;48.426;1.500;2022-08-19T02:04:39;24.30;68.20
62363;DHT22;48396;48.426;1.500;2022-08-19T02:07:06;24.30;68.90
62363;DHT22;48396;48.426;1.500;2022-08-19T02:09:33;24.20;69.10
62363;DHT22;48396;48.426;1.500;2022-08-19T02:11:59;24.00;69.80
62363;DHT22;48396;48.426;1.500;2022-08-19T02:14:24;24.00;70.00
62363;DHT22;48396;48.426;1.500;2022-08-19T02:16:50;24.00;70.60
62363;DHT22;48396;48.426;1.500;2022-08-19T02:19:16;23.70;71.60
62363;DHT22;48396;48.426;1.500;2022-08-19T02:21:41;23.60;72.40
62363;DHT22;48396;48.426;1.500;2022-08-19T02:24:09;23.50;72.30
62363;DHT22;48396;48.426;1.500;2022-08-19T02:26:34;23.70;72.00
62363;DHT22;48396;48.426;1.500;2022-08-19T02:29:00;23.80;71.60
62363;DHT22;48396;48.426;1.500;2022-08-19T02:31:26;23.70;71.60
62363;DHT22;48396;48.426;1.500;2022-08-19T02:33:53;23.80;71.80
62363;DHT22;48396;48.426;1.500;2022-08-19T02:36:19;23.90;71.60
62363;DHT22;48396;48.426;1.500;2022-08-19T02:38:45;24.00;71.10
62363;DHT22;48396;48.426;1.500;2022-08-19T02:41:12;24.10;70.90
62363;DHT22;48396;48.426;1.500;2022-08-19T02:43:38;24.20;70.60
62363;DHT22;48396;48.426;1.500;2022-08-19T02:46:12;24.20;70.60
62363;DHT22;48396;48.426;1.500;2022-08-19T02:48:38;24.20;70.60
62363;DHT22;48396;48.426;1.500;2022-08-19T02:51:04;24.10;70.60
62363;DHT22;48396;48.426;1.500;2022-08-19T02:53:30;24.10;70.70
62363;DHT22;48396;48.426;1.500;2022-08-19T02:55:56;24.10;70.90
62363;DHT22;48396;48.426;1.500;2022-08-19T02:58:22;24.20;71.00
62363;DHT22;48396;48.426;1.500;2022-08-19T03:00:49;24.10;71.00
62363;DHT22;48396;48.426;1.500;2022-08-19T03:03:16;24.10;71.20
62363;DHT22;48396;48.426;1.500;2022-08-19T03:05:42;23.80;72.20
62363;DHT22;48396;48.426;1.500;2022-08-19T03:08:08;23.70;73.10
62363;DHT22;48396;48.426;1.500;2022-08-19T03:10:46;23.70;73.20
62363;DHT22;48396;48.426;1.500;2022-08-19T03:13:13;23.80;73.60
62363;DHT22;48396;48.426;1.500;2022-08-19T03:15:40;23.90;73.10
62363;DHT22;48396;48.426;1.500;2022-08-19T03:18:05;23.90;72.90
62363;DHT22;48396;48.426;1.500;2022-08-19T03:20:31;24.00;72.60
62363;DHT22;48396;48.426;1.500;2022-08-19T03:22:58;24.10;72.40
62363;DHT22;48396;48.426;1.500;2022-08-19T03:25:23;24.10;72.20
62363;DHT22;48396;48.426;1.500;2022-08-19T03:27:49;24.10;72.50
62363;DHT22;48396;48.426;1.500;2022-08-19T03:30:15;24.00;72.70
62363;DHT22;48396;48.426;1.500;2022-08-19T03:32:40;23.90;73.20
62363;DHT22;48396;48.426;1.500;2022-08-19T03:35:06;23.80;73.60
62363;DHT22;48396;48.426;1.500;2022-08-19T03:37:32;23.80;73.90
62363;DHT22;48396;48.426;1.500;2022-08-19T03:39:57;23.70;74.00
62363;DHT22;48396;48.426;1.500;2022-08-19T03:42:24;23.60;74.50
62363;DHT22;48396;48.426;1.500;2022-08-19T03:44:52;23.60;74.70
62363;DHT22;48396;48.426;1.500;2022-08-19T03:47:17;23.50;75.10
62363;DHT22;48396;48.426;1.500;2022-08-19T03:49:43;23.60;75.20
62363;DHT22;48396;48.426;1.500;2022-08-19T03:52:09;23.60;75.00
62363;DHT22;48396;48.426;1.500;2022-08-19T03:54:35;23.70;74.70
62363;DHT22;48396;48.426;1.500;2022-08-19T03:57:02;23.80;74.90
62363;DHT22;48396;48.426;1.500;2022-08-19T03:59:29;23.80;74.90
62363;DHT22;48396;48.426;1.500;2022-08-19T04:01:55;23.80;74.60
62363;DHT22;48396;48.426;1.500;2022-08-19T04:04:21;23.80;74.70
62363;DHT22;48396;48.426;1.500;2022-08-19T04:06:47;23.90;74.40
62363;DHT22;48396;48.426;1.500;2022-08-19T04:09:12;23.70;74.90
62363;DHT22;48396;48.426;1.500;2022-08-19T04:11:56;23.60;75.00
62363;DHT22;48396;48.426;1.500;2022-08-19T04:14:23;23.50;75.60
62363;DHT22;48396;48.426;1.500;2022-08-19T04:16:50;23.60;75.50
62363;DHT22;48396;48.426;1.500;2022-08-19T04:19:16;23.70;75.20
62363;DHT22;48396;48.426;1.500;2022-08-19T04:21:47;23.70;75.00
62363;DHT22;48396;48.426;1.500;2022-08-19T04:24:12;23.80;74.70
62363;DHT22;48396;48.426;1.500;2022-08-19T04:26:38;23.90;74.20
62363;DHT22;48396;48.426;1.500;2022-08-19T04:29:05;24.00;74.10
62363;DHT22;48396;48.426;1.500;2022-08-19T04:31:31;23.70;74.50
62363;DHT22;48396;48.426;1.500;2022-08-19T04:34:01;23.60;75.10
62363;DHT22;48396;48.426;1.500;2022-08-19T04:36:30;23.60;75.20
62363;DHT22;48396;48.426;1.500;2022-08-19T04:38:57;23.60;75.20
62363;DHT22;48396;48.426;1.500;2022-08-19T04:41:23;23.60;75.10
62363;DHT22;48396;48.426;1.500;2022-08-19T04:44:07;23.50;75.10
62363;DHT22;48396;48.426;1.500;2022-08-19T04:46:33;23.50;75.10
62363;DHT22;48396;48.426;1.500;2022-08-19T04:48:59;23.40;75.40
62363;DHT22;48396;48.426;1.500;2022-08-19T04:51:26;23.30;75.90
62363;DHT22;48396;48.426;1.500;2022-08-19T04:53:51;23.10;76.60
62363;DHT22;48396;48.426;1.500;2022-08-19T04:56:18;23.10;77.00
62363;DHT22;48396;48.426;1.500;2022-08-19T04:58:48;23.10;77.00
62363;DHT22;48396;48.426;1.500;2022-08-19T05:01:23;23.00;77.20
62363;DHT22;48396;48.426;1.500;2022-08-19T05:03:49;22.90;77.70
62363;DHT22;48396;48.426;1.500;2022-08-19T05:06:15;22.90;77.60
62363;DHT22;48396;48.426;1.500;2022-08-19T05:08:41;23.10;77.20
62363;DHT22;48396;48.426;1.500;2022-08-19T05:11:09;23.30;76.60
62363;DHT22;48396;48.426;1.500;2022-08-19T05:13:36;23.20;76.10
62363;DHT22;48396;48.426;1.500;2022-08-19T05:16:02;23.30;76.10
62363;DHT22;48396;48.426;1.500;2022-08-19T05:18:28;23.30;76.10
62363;DHT22;48396;48.426;1.500;2022-08-19T05:21:14;23.20;75.90
62363;DHT22;48396;48.426;1.500;2022-08-19T05:23:58;23.10;76.10
62363;DHT22;48396;48.426;1.500;2022-08-19T05:26:24;23.10;76.50
62363;DHT22;48396;48.426;1.500;2022-08-19T05:28:53;23.00;76.60
62363;DHT22;48396;48.426;1.500;2022-08-19T05:31:19;23.00;76.80
62363;DHT22;48396;48.426;1.500;2022-08-19T05:33:45;23.00;76.90
62363;DHT22;48396;48.426;1.500;2022-08-19T05:36:11;22.90;77.00
62363;DHT22;48396;48.426;1.500;2022-08-19T05:38:37;22.90;77.20
62363;DHT22;48396;48.426;1.500;2022-08-19T05:41:09;23.00;77.20
62363;DHT22;48396;48.426;1.500;2022-08-19T05:43:35;23.00;77.20
62363;DHT22;48396;48.426;1.500;2022-08-19T05:46:01;23.10;76.90
62363;DHT22;48396;48.426;1.500;2022-08-19T05:48:26;23.10;76.60
62363;DHT22;48396;48.426;1.500;2022-08-19T05:50:54;23.30;76.50
62363;DHT22;48396;48.426;1.500;2022-08-19T05:53:19;23.30;76.10
62363;DHT22;48396;48.426;1.500;2022-08-19T05:55:45;23.30;75.70
62363;DHT22;48396;48.426;1.500;2022-08-19T05:58:10;23.20;75.80
62363;DHT22;48396;48.426;1.500;2022-08-19T06:00:36;23.10;76.20
62363;DHT22;48396;48.426;1.500;2022-08-19T06:03:02;23.10;76.60
62363;DHT22;48396;48.426;1.500;2022-08-19T06:05:29;23.10;76.60
62363;DHT22;48396;48.426;1.500;2022-08-19T06:07:55;23.10;77.00
62363;DHT22;48396;48.426;1.500;2022-08-19T06:10:21;23.00;76.90
62363;DHT22;48396;48.426;1.500;2022-08-19T06:12:47;22.80;77.50
62363;DHT22;48396;48.426;1.500;2022-08-19T06:15:13;22.80;77.90
62363;DHT22;48396;48.426;1.500;2022-08-19T06:17:39;22.70;78.20
62363;DHT22;48396;48.426;1.500;2022-08-19T06:20:07;22.70;78.10
62363;DHT22;48396;48.426;1.500;2022-08-19T06:22:38;22.70;77.80
62363;DHT22;48396;48.426;1.500;2022-08-19T06:25:04;22.80;77.90
62363;DHT22;48396;48.426;1.500;2022-08-19T06:27:29;22.80;77.90
62363;DHT22;48396;48.426;1.500;2022-08-19T06:29:56;22.80;77.90
62363;DHT22;48396;48.426;1.500;2022-08-19T06:32:22;22.90;77.80
62363;DHT22;48396;48.426;1.500;2022-08-19T06:34:48;22.90;77.60
62363;DHT22;48396;48.426;1.500;2022-08-19T06:37:13;23.00;77.40
62363;DHT22;48396;48.426;1.500;2022-08-19T06:39:39;23.10;77.10
62363;DHT22;48396;48.426;1.500;2022-08-19T06:42:05;23.30;76.70
62363;DHT22;48396;48.426;1.500;2022-08-19T06:44:34;23.40;76.40
62363;DHT22;48396;48.426;1.500;2022-08-19T06:47:05;23.30;76.40
62363;DHT22;48396;48.426;1.500;2022-08-19T06:49:31;23.10;76.80
62363;DHT22;48396;48.426;1.500;2022-08-19T06:51:57;23.20;77.50
62363;DHT22;48396;48.426;1.500;2022-08-19T06:54:23;23.10;77.50
62363;DHT22;48396;48.426;1.500;2022-08-19T06:56:49;23.10;77.80
62363;DHT22;48396;48.426;1.500;2022-08-19T06:59:16;23.10;77.80
62363;DHT22;48396;48.426;1.500;2022-08-19T07:01:47;23.30;77.60
62363;DHT22;48396;48.426;1.500;2022-08-19T07:04:15;23.40;77.40
62363;DHT22;48396;48.426;1.500;2022-08-19T07:06:41;23.40;77.40
62363;DHT22;48396;48.426;1.500;2022-08-19T07:09:07;23.40;77.30
62363;DHT22;48396;48.426;1.500;2022-08-19T07:11:33;23.30;77.80
62363;DHT22;48396;48.426;1.500;2022-08-19T07:13:59;23.20;78.70
62363;DHT22;48396;48.426;1.500;2022-08-19T07:16:25;23.20;79.00
62363;DHT22;48396;48.426;1.500;2022-08-19T07:18:51;23.30;79.00
62363;DHT22;48396;48.426;1.500;2022-08-19T07:21:22;23.40;78.50
62363;DHT22;48396;48.426;1.500;2022-08-19T07:23:48;23.60;78.10
62363;DHT22;48396;48.426;1.500;2022-08-19T07:26:18;23.60;77.50
62363;DHT22;48396;48.426;1.500;2022-08-19T07:28:45;23.60;77.50
62363;DHT22;48396;48.426;1.500;2022-08-19T07:31:11;23.60;77.60
62363;DHT22;48396;48.426;1.500;2022-08-19T07:33:38;23.60;77.60
62363;DHT22;48396;48.426;1.500;2022-08-19T07:36:05;23.50;78.10
62363;DHT22;48396;48.426;1.500;2022-08-19T07:38:31;23.50;78.10
62363;DHT22;48396;48.426;1.500;2022-08-19T07:40:57;23.50;78.20
62363;DHT22;48396;48.426;1.500;2022-08-19T07:43:23;23.50;78.10
62363;DHT22;48396;48.426;1.500;2022-08-19T07:45:54;23.60;77.90
62363;DHT22;48396;48.426;1.500;2022-08-19T07:48:22;23.60;78.00
62363;DHT22;48396;48.426;1.500;2022-08-19T07:50:51;23.60;78.20
62363;DHT22;48396;48.426;1.500;2022-08-19T07:53:16;23.40;78.90
62363;DHT22;48396;48.426;1.500;2022-08-19T07:55:42;23.40;78.90
62363;DHT22;48396;48.426;1.500;2022-08-19T07:58:07;23.50;78.60
62363;DHT22;48396;48.426;1.500;2022-08-19T08:00:33;23.50;78.70
62363;DHT22;48396;48.426;1.500;2022-08-19T08:02:59;23.40;78.80
62363;DHT22;48396;48.426;1.500;2022-08-19T08:05:25;23.50;79.00
62363;DHT22;48396;48.426;1.500;2022-08-19T08:08:09;23.50;78.70
62363;DHT22;48396;48.426;1.500;2022-08-19T08:10:53;23.40;79.50
62363;DHT22;48396;48.426;1.500;2022-08-19T08:13:19;23.50;79.60
62363;DHT22;48396;48.426;1.500;2022-08-19T08:15:44;23.60;79.60
62363;DHT22;48396;48.426;1.500;2022-08-19T08:18:10;23.70;79.20
62363;DHT22;48396;48.426;1.500;2022-08-19T08:20:36;23.60;80.20
62363;DHT22;48396;48.426;1.500;2022-08-19T08:23:02;23.80;81.00
62363;DHT22;48396;48.426;1.500;2022-08-19T08:25:46;23.70;81.40
62363;DHT22;48396;48.426;1.500;2022-08-19T08:28:13;23.60;81.40
62363;DHT22;48396;48.426;1.500;2022-08-19T08:30:39;23.60;82.00
62363;DHT22;48396;48.426;1.500;2022-08-19T08:33:07;23.70;81.50
62363;DHT22;48396;48.426;1.500;2022-08-19T08:35:33;23.70;81.30
62363;DHT22;48396;48.426;1.500;2022-08-19T08:37:59;23.80;80.80
62363;DHT22;48396;48.426;1.500;2022-08-19T08:40:34;23.90;80.40
62363;DHT22;48396;48.426;1.500;2022-08-19T08:43:07;23.90;80.30
62363;DHT22;48396;48.426;1.500;2022-08-19T08:45:42;23.90;80.30
62363;DHT22;48396;48.426;1.500;2022-08-19T08:50:58;23.90;80.30
62363;DHT22;48396;48.426;1.500;2022-08-19T08:53:25;24.00;80.30
62363;DHT22;48396;48.426;1.500;2022-08-19T08:55:51;24.00;80.30
62363;DHT22;48396;48.426;1.500;2022-08-19T08:58:27;24.00;79.80
62363;DHT22;48396;48.426;1.500;2022-08-19T09:00:56;24.00;79.50
62363;DHT22;48396;48.426;1.500;2022-08-19T09:03:23;24.00;79.70
62363;DHT22;48396;48.426;1.500;2022-08-19T09:06:03;23.80;80.50
62363;DHT22;48396;48.426;1.500;2022-08-19T09:16:20;23.90;81.10
62363;DHT22;48396;48.426;1.500;2022-08-19T09:18:48;23.90;80.70
62363;DHT22;48396;48.426;1.500;2022-08-19T09:21:17;23.80;81.00
62363;DHT22;48396;48.426;1.500;2022-08-19T09:23:43;23.90;80.60
62363;DHT22;48396;48.426;1.500;2022-08-19T09:26:09;24.00;80.00
62363;DHT22;48396;48.426;1.500;2022-08-19T09:28:42;24.10;80.10
62363;DHT22;48396;48.426;1.500;2022-08-19T09:31:09;24.20;79.80
62363;DHT22;48396;48.426;1.500;2022-08-19T09:33:35;24.10;79.50
62363;DHT22;48396;48.426;1.500;2022-08-19T09:36:03;24.10;79.70
62363;DHT22;48396;48.426;1.500;2022-08-19T09:38:28;24.20;79.80
62363;DHT22;48396;48.426;1.500;2022-08-19T09:40:54;24.20;79.30
62363;DHT22;48396;48.426;1.500;2022-08-19T09:43:20;24.40;79.00
62363;DHT22;48396;48.426;1.500;2022-08-19T09:45:46;24.30;79.10
62363;DHT22;48396;48.426;1.500;2022-08-19T09:48:13;24.40;79.00
62363;DHT22;48396;48.426;1.500;2022-08-19T09:50:38;24.50;78.80
62363;DHT22;48396;48.426;1.500;2022-08-19T09:53:04;24.50;78.30
62363;DHT22;48396;48.426;1.500;2022-08-19T09:55:32;24.60;78.00
62363;DHT22;48396;48.426;1.500;2022-08-19T09:58:01;24.60;78.00
62363;DHT22;48396;48.426;1.500;2022-08-19T10:00:27;24.70;78.40
62363;DHT22;48396;48.426;1.500;2022-08-19T10:02:53;24.70;77.20
62363;DHT22;48396;48.426;1.500;2022-08-19T10:05:19;24.70;77.50
62363;DHT22;48396;48.426;1.500;2022-08-19T10:08:03;24.80;77.50
62363;DHT22;48396;48.426;1.500;2022-08-19T10:10:29;24.90;76.70
62363;DHT22;48396;48.426;1.500;2022-08-19T10:12:54;24.90;76.50
62363;DHT22;48396;48.426;1.500;2022-08-19T10:15:21;24.90;76.00
62363;DHT22;48396;48.426;1.500;2022-08-19T10:17:46;25.10;76.30
62363;DHT22;48396;48.426;1.500;2022-08-19T10:20:12;25.10;75.90
62363;DHT22;48396;48.426;1.500;2022-08-19T10:22:38;25.20;75.80
62363;DHT22;48396;48.426;1.500;2022-08-19T10:25:04;25.30;75.80
62363;DHT22;48396;48.426;1.500;2022-08-19T10:27:30;25.30;75.80
62363;DHT22;48396;48.426;1.500;2022-08-19T10:29:56;25.30;73.60
62363;DHT22;48396;48.426;1.500;2022-08-19T10:32:22;25.20;73.00
62363;DHT22;48396;48.426;1.500;2022-08-19T10:34:48;25.30;72.90
62363;DHT22;48396;48.426;1.500;2022-08-19T10:37:15;25.30;72.70
62363;DHT22;48396;48.426;1.500;2022-08-19T10:39:41;25.30;71.40
62363;DHT22;48396;48.426;1.500;2022-08-19T10:42:07;25.40;71.80
62363;DHT22;48396;48.426;1.500;2022-08-19T10:44:35;25.40;71.80
62363;DHT22;48396;48.426;1.500;2022-08-19T10:47:01;25.40;71.10
62363;DHT22;48396;48.426;1.500;2022-08-19T10:49:27;25.40;70.90
62363;DHT22;48396;48.426;1.500;2022-08-19T10:51:53;25.40;70.60
62363;DHT22;48396;48.426;1.500;2022-08-19T10:54:38;25.40;70.90
62363;DHT22;48396;48.426;1.500;2022-08-19T10:57:22;25.40;71.00
62363;DHT22;48396;48.426;1.500;2022-08-19T10:59:55;25.50;70.60
62363;DHT22;48396;48.426;1.500;2022-08-19T11:02:21;25.40;71.10
62363;DHT22;48396;48.426;1.500;2022-08-19T11:04:46;25.50;70.30
62363;DHT22;48396;48.426;1.500;2022-08-19T11:07:15;25.60;70.10
62363;DHT22;48396;48.426;1.500;2022-08-19T11:09:41;25.60;69.60
62363;DHT22;48396;48.426;1.500;2022-08-19T11:12:07;25.60;70.00
62363;DHT22;48396;48.426;1.500;2022-08-19T11:14:33;25.60;70.00
62363;DHT22;48396;48.426;1.500;2022-08-19T11:16:59;25.50;70.50
62363;DHT22;48396;48.426;1.500;2022-08-19T11:19:25;25.50;70.90
62363;DHT22;48396;48.426;1.500;2022-08-19T11:21:51;25.60;71.10
62363;DHT22;48396;48.426;1.500;2022-08-19T11:24:18;25.60;71.10
62363;DHT22;48396;48.426;1.500;2022-08-19T11:26:46;25.60;71.40
62363;DHT22;48396;48.426;1.500;2022-08-19T11:29:13;25.50;71.50
62363;DHT22;48396;48.426;1.500;2022-08-19T11:31:40;25.50;71.70
62363;DHT22;48396;48.426;1.500;2022-08-19T11:34:07;25.60;71.80
62363;DHT22;48396;48.426;1.500;2022-08-19T11:36:33;25.60;71.70
62363;DHT22;48396;48.426;1.500;2022-08-19T11:38:59;25.60;71.10
62363;DHT22;48396;48.426;1.500;2022-08-19T11:41:25;25.60;70.70
62363;DHT22;48396;48.426;1.500;2022-08-19T11:43:51;25.50;71.10
62363;DHT22;48396;48.426;1.500;2022-08-19T11:46:19;25.60;71.60
62363;DHT22;48396;48.426;1.500;2022-08-19T11:48:45;25.60;71.60
62363;DHT22;48396;48.426;1.500;2022-08-19T11:51:12;25.70;71.20
62363;DHT22;48396;48.426;1.500;2022-08-19T11:53:38;25.80;71.40
62363;DHT22;48396;48.426;1.500;2022-08-19T11:56:05;25.70;71.30
62363;DHT22;48396;48.426;1.500;2022-08-19T11:58:31;25.60;71.30
62363;DHT22;48396;48.426;1.500;2022-08-19T12:00:57;25.70;71.50
62363;DHT22;48396;48.426;1.500;2022-08-19T12:03:22;25.80;71.60
62363;DHT22;48396;48.426;1.500;2022-08-19T12:05:48;25.90;71.40
62363;DHT22;48396;48.426;1.500;2022-08-19T12:08:15;25.90;72.00
62363;DHT22;48396;48.426;1.500;2022-08-19T12:10:41;25.90;70.90
62363;DHT22;48396;48.426;1.500;2022-08-19T12:13:10;26.00;71.30
62363;DHT22;48396;48.426;1.500;2022-08-19T12:15:37;26.00;71.80
62363;DHT22;48396;48.426;1.500;2022-08-19T12:18:03;26.20;72.20
62363;DHT22;48396;48.426;1.500;2022-08-19T12:20:29;26.30;71.50
62363;DHT22;48396;48.426;1.500;2022-08-19T12:22:54;26.20;71.70
62363;DHT22;48396;48.426;1.500;2022-08-19T12:25:20;26.30;71.50
62363;DHT22;48396;48.426;1.500;2022-08-19T12:27:46;26.30;70.80
62363;DHT22;48396;48.426;1.500;2022-08-19T12:30:12;26.20;70.50
62363;DHT22;48396;48.426;1.500;2022-08-19T12:32:39;26.30;70.80
62363;DHT22;48396;48.426;1.500;2022-08-19T12:35:05;26.40;71.10
62363;DHT22;48396;48.426;1.500;2022-08-19T12:37:31;26.60;70.90
62363;DHT22;48396;48.426;1.500;2022-08-19T12:39:57;26.60;69.80
62363;DHT22;48396;48.426;1.500;2022-08-19T12:42:23;26.60;69.10
62363;DHT22;48396;48.426;1.500;2022-08-19T12:44:49;26.50;68.80
62363;DHT22;48396;48.426;1.500;2022-08-19T12:47:17;26.50;69.00
62363;DHT22;48396;48.426;1.500;2022-08-19T12:49:42;26.50;69.20
62363;DHT22;48396;48.426;1.500;2022-08-19T12:52:09;26.60;69.00
62363;DHT22;48396;48.426;1.500;2022-08-19T12:54:36;26.50;68.70
62363;DHT22;48396;48.426;1.500;2022-08-19T12:57:07;26.60;68.90
62363;DHT22;48396;48.426;1.500;2022-08-19T12:59:33;26.60;68.20
62363;DHT22;48396;48.426;1.500;2022-08-19T13:01:59;26.60;67.90
62363;DHT22;48396;48.426;1.500;2022-08-19T13:04:25;26.60;67.50
62363;DHT22;48396;48.426;1.500;2022-08-19T13:06:51;26.60;67.80
62363;DHT22;48396;48.426;1.500;2022-08-19T13:09:17;26.60;68.00
62363;DHT22;48396;48.426;1.500;2022-08-19T13:11:42;26.50;67.80
62363;DHT22;48396;48.426;1.500;2022-08-19T13:14:08;26.40;67.80
62363;DHT22;48396;48.426;1.500;2022-08-19T13:16:35;26.40;67.90
62363;DHT22;48396;48.426;1.500;2022-08-19T13:19:01;26.50;68.10
62363;DHT22;48396;48.426;1.500;2022-08-19T13:21:29;26.50;68.40
62363;DHT22;48396;48.426;1.500;2022-08-19T13:23:56;26.50;68.60
62363;DHT22;48396;48.426;1.500;2022-08-19T13:26:22;26.60;68.40
62363;DHT22;48396;48.426;1.500;2022-08-19T13:28:47;26.60;68.90
62363;DHT22;48396;48.426;1.500;2022-08-19T13:31:34;26.50;69.00
62363;DHT22;48396;48.426;1.500;2022-08-19T13:34:19;26.50;68.60
62363;DHT22;48396;48.426;1.500;2022-08-19T13:36:51;26.60;68.60
62363;DHT22;48396;48.426;1.500;2022-08-19T13:39:17;26.60;67.90
62363;DHT22;48396;48.426;1.500;2022-08-19T13:41:44;26.50;67.70
62363;DHT22;48396;48.426;1.500;2022-08-19T13:44:14;26.50;68.00
62363;DHT22;48396;48.426;1.500;2022-08-19T13:46:40;26.50;68.20
62363;DHT22;48396;48.426;1.500;2022-08-19T13:49:11;26.60;68.50
62363;DHT22;48396;48.426;1.500;2022-08-19T13:51:37;26.60;68.50
62363;DHT22;48396;48.426;1.500;2022-08-19T13:54:05;26.60;68.30
62363;DHT22;48396;48.426;1.500;2022-08-19T13:56:30;26.80;68.20
62363;DHT22;48396;48.426;1.500;2022-08-19T13:58:56;26.90;67.90
62363;DHT22;48396;48.426;1.500;2022-08-19T14:01:23;26.90;66.90
62363;DHT22;48396;48.426;1.500;2022-08-19T14:03:49;26.90;66.50
62363;DHT22;48396;48.426;1.500;2022-08-19T14:06:14;26.90;67.00
62363;DHT22;48396;48.426;1.500;2022-08-19T14:08:40;26.90;67.00
62363;DHT22;48396;48.426;1.500;2022-08-19T14:11:07;26.80;66.80
62363;DHT22;48396;48.426;1.500;2022-08-19T14:13:33;26.60;67.10
62363;DHT22;48396;48.426;1.500;2022-08-19T14:15:59;26.50;67.60
62363;DHT22;48396;48.426;1.500;2022-08-19T14:18:24;26.40;68.70
62363;DHT22;48396;48.426;1.500;2022-08-19T14:20:50;26.40;70.40
62363;DHT22;48396;48.426;1.500;2022-08-19T14:23:16;26.30;73.00
62363;DHT22;48396;48.426;1.500;2022-08-19T14:25:42;26.20;74.60
62363;DHT22;48396;48.426;1.500;2022-08-19T14:28:08;26.20;75.60
62363;DHT22;48396;48.426;1.500;2022-08-19T14:30:34;26.30;76.10
62363;DHT22;48396;48.426;1.500;2022-08-19T14:33:00;26.30;75.50
62363;DHT22;48396;48.426;1.500;2022-08-19T14:35:27;26.40;75.10
62363;DHT22;48396;48.426;1.500;2022-08-19T14:37:53;26.40;75.80
62363;DHT22;48396;48.426;1.500;2022-08-19T14:40:24;26.30;76.20
62363;DHT22;48396;48.426;1.500;2022-08-19T14:42:54;26.10;77.30
62363;DHT22;48396;48.426;1.500;2022-08-19T14:45:29;26.20;77.70
62363;DHT22;48396;48.426;1.500;2022-08-19T14:47:55;26.20;77.50
62363;DHT22;48396;48.426;1.500;2022-08-19T14:50:21;26.20;77.30
62363;DHT22;48396;48.426;1.500;2022-08-19T14:52:47;26.20;78.20
62363;DHT22;48396;48.426;1.500;2022-08-19T14:55:13;26.30;79.10
62363;DHT22;48396;48.426;1.500;2022-08-19T14:57:42;26.40;80.00
62363;DHT22;48396;48.426;1.500;2022-08-19T15:00:08;26.60;79.70
62363;DHT22;48396;48.426;1.500;2022-08-19T15:02:38;26.60;79.80
62363;DHT22;48396;48.426;1.500;2022-08-19T15:05:04;26.60;80.00
62363;DHT22;48396;48.426;1.500;2022-08-19T15:07:30;26.60;80.00
62363;DHT22;48396;48.426;1.500;2022-08-19T15:09:56;26.50;82.50
62363;DHT22;48396;48.426;1.500;2022-08-19T15:12:21;26.40;80.90
62363;DHT22;48396;48.426;1.500;2022-08-19T15:14:47;26.40;80.50
62363;DHT22;48396;48.426;1.500;2022-08-19T15:17:15;26.60;80.60
62363;DHT22;48396;48.426;1.500;2022-08-19T15:19:41;26.60;80.20
62363;DHT22;48396;48.426;1.500;2022-08-19T15:22:07;26.60;81.00
62363;DHT22;48396;48.426;1.500;2022-08-19T15:24:33;26.60;80.40
62363;DHT22;48396;48.426;1.500;2022-08-19T15:27:00;26.70;80.30
62363;DHT22;48396;48.426;1.500;2022-08-19T15:29:26;26.70;80.70
62363;DHT22;48396;48.426;1.500;2022-08-19T15:31:53;26.80;80.20
62363;DHT22;48396;48.426;1.500;2022-08-19T15:34:21;26.80;80.20
62363;DHT22;48396;48.426;1.500;2022-08-19T15:36:46;26.80;80.00
62363;DHT22;48396;48.426;1.500;2022-08-19T15:39:12;26.80;79.10
62363;DHT22;48396;48.426;1.500;2022-08-19T15:41:37;26.70;79.00